createdAt,value
2022-12-28T00:01:45.448Z,83.04
2022-12-28T00:04:14.932Z,83.18
2022-12-28T00:06:41.373Z,83.49
2022-12-28T00:09:11.054Z,83.72
2022-12-28T00:11:38.202Z,84.10
2022-12-28T00:14:05.009Z,84.42
2022-12-28T00:16:34.390Z,84.43
2022-12-28T00:19:03.607Z,84.61
2022-12-28T00:21:31.222Z,84.65
2022-12-28T00:23:59.536Z,85.06
2022-12-28T00:26:28.840Z,85.01
2022-12-28T00:29:01.667Z,85.47
2022-12-28T00:31:31.141Z,85.23
2022-12-28T00:33:57.755Z,85.22
2022-12-28T00:36:24.468Z,85.19
2022-12-28T00:39:11.029Z,85.24
2022-12-28T00:41:37.534Z,85.45
2022-12-28T00:44:04.080Z,85.47
2022-12-28T00:46:30.539Z,85.49
2022-12-28T00:49:00.584Z,85.54
2022-12-28T00:51:26.995Z,85.63
2022-12-28T00:53:53.516Z,85.74
2022-12-28T00:56:22.202Z,85.78
2022-12-28T00:58:49.157Z,85.88
2022-12-28T01:01:21.840Z,86.07
2022-12-28T01:03:48.795Z,86.18
2022-12-28T01:06:17.696Z,86.18
2022-12-28T01:08:44.847Z,86.32
2022-12-28T01:11:16.183Z,86.50
2022-12-28T01:13:42.667Z,86.59
2022-12-28T01:16:14.027Z,86.84
2022-12-28T01:18:40.979Z,86.94
2022-12-28T01:21:13.101Z,86.97
2022-12-28T01:23:39.614Z,87.37
2022-12-28T01:26:06.605Z,87.38
2022-12-28T01:28:33.655Z,87.65
2022-12-28T01:31:09.413Z,87.90
2022-12-28T01:33:35.959Z,87.83
2022-12-28T01:36:09.869Z,87.92
2022-12-28T01:38:36.922Z,88.47
2022-12-28T01:41:07.484Z,88.74
2022-12-28T01:43:47.234Z,88.77
2022-12-28T01:46:20.477Z,88.96
2022-12-28T01:49:19.160Z,88.85
2022-12-28T01:52:00.579Z,89.05
2022-12-28T01:54:31.787Z,89.26
2022-12-28T01:56:58.744Z,89.71
2022-12-28T01:59:31.412Z,89.80
2022-12-28T02:01:58.389Z,90.19
2022-12-28T02:04:26.919Z,90.79
2022-12-28T02:06:55.600Z,90.58
2022-12-28T02:09:29.795Z,90.83
2022-12-28T02:11:57.025Z,91.09
2022-12-28T02:14:23.871Z,91.45
2022-12-28T02:16:50.615Z,91.64
2022-12-28T02:19:25.821Z,91.83
2022-12-28T02:22:18.465Z,92.20
2022-12-28T02:25:12.020Z,93.22
2022-12-28T02:27:46.164Z,94.67
2022-12-28T02:30:14.232Z,94.16
2022-12-28T02:32:54.205Z,93.99
2022-12-28T02:35:39.090Z,94.12
2022-12-28T02:38:30.464Z,94.14
2022-12-28T02:41:06.015Z,94.85
2022-12-28T02:43:34.028Z,94.96
2022-12-28T02:46:11.851Z,95.88
2022-12-28T02:48:42.966Z,95.82
2022-12-28T02:51:28.289Z,95.42
2022-12-28T02:54:14.646Z,97.37
2022-12-28T02:56:53.383Z,97.33
2022-12-28T02:59:30.971Z,97.37
2022-12-28T03:02:27.491Z,97.32
2022-12-28T03:05:09.316Z,98.78
2022-12-28T03:07:41.905Z,100.00
2022-12-28T03:10:14.384Z,100.00
2022-12-28T03:13:05.328Z,100.00
2022-12-28T03:15:37.319Z,100.00
2022-12-28T03:18:15.072Z,100.00
2022-12-28T03:20:41.566Z,100.00
2022-12-28T03:23:11.324Z,100.00
2022-12-28T03:25:42.177Z,100.00
2022-12-28T03:28:13.390Z,100.00
2022-12-28T03:30:42.691Z,100.00
2022-12-28T03:33:11.415Z,100.00
2022-12-28T03:35:42.763Z,100.00
2022-12-28T03:38:18.826Z,100.00
2022-12-28T03:40:51.675Z,100.00
2022-12-28T03:43:25.608Z,100.00
2022-12-28T03:46:00.505Z,100.00
2022-12-28T03:48:27.446Z,100.00
2022-12-28T03:50:55.085Z,100.00
2022-12-28T03:53:29.020Z,100.00
2022-12-28T03:56:10.806Z,100.00
2022-12-28T03:58:37.345Z,100.00
2022-12-28T04:01:04.629Z,100.00
2022-12-28T04:03:31.305Z,100.00
2022-12-28T04:05:59.839Z,100.00
2022-12-28T04:08:27.192Z,100.00
2022-12-28T04:10:54.129Z,100.00
2022-12-28T04:13:20.686Z,100.00
2022-12-28T04:15:58.333Z,100.00
2022-12-28T04:18:25.159Z,100.00
2022-12-28T04:20:51.889Z,100.00
2022-12-28T04:23:18.538Z,100.00
2022-12-28T04:25:45.270Z,100.00
2022-12-28T04:28:11.809Z,100.00
2022-12-28T04:30:38.404Z,100.00
2022-12-28T04:33:04.993Z,100.00
2022-12-28T04:35:32.555Z,100.00
2022-12-28T04:37:59.100Z,100.00
2022-12-28T04:40:25.578Z,100.00
2022-12-28T04:42:52.075Z,100.00
2022-12-28T04:45:22.150Z,100.00
2022-12-28T04:47:48.905Z,100.00
2022-12-28T04:50:15.487Z,100.00
2022-12-28T04:52:43.248Z,100.00
2022-12-28T04:55:32.470Z,100.00
2022-12-28T04:57:56.407Z,100.00
2022-12-28T05:00:23.211Z,100.00
2022-12-28T05:02:49.908Z,100.00
2022-12-28T05:05:16.656Z,100.00
2022-12-28T05:07:43.181Z,100.00
2022-12-28T05:10:09.814Z,100.00
2022-12-28T05:12:36.267Z,100.00
2022-12-28T05:15:02.794Z,100.00
2022-12-28T05:17:29.328Z,100.00
2022-12-28T05:19:55.769Z,100.00
2022-12-28T05:22:22.293Z,100.00
2022-12-28T05:24:48.851Z,100.00
2022-12-28T05:27:15.286Z,100.00
2022-12-28T05:29:41.835Z,100.00
2022-12-28T05:32:08.701Z,100.00
2022-12-28T05:34:35.105Z,100.00
2022-12-28T05:37:01.510Z,100.00
2022-12-28T05:39:28.096Z,100.00
2022-12-28T05:41:54.567Z,100.00
2022-12-28T05:44:21.043Z,100.00
2022-12-28T05:46:47.569Z,100.00
2022-12-28T05:49:14.157Z,100.00
2022-12-28T05:51:40.591Z,100.00
2022-12-28T05:54:07.004Z,100.00
2022-12-28T05:56:33.940Z,100.00
2022-12-28T05:59:06.383Z,100.00
2022-12-28T06:01:36.632Z,100.00
2022-12-28T06:04:06.036Z,100.00
2022-12-28T06:06:34.218Z,100.00
2022-12-28T06:09:00.827Z,100.00
2022-12-28T06:11:29.299Z,100.00
2022-12-28T06:13:56.297Z,100.00
2022-12-28T06:16:28.917Z,100.00
2022-12-28T06:18:56.013Z,100.00
2022-12-28T06:21:31.218Z,100.00
2022-12-28T06:23:59.391Z,100.00
2022-12-28T06:26:28.485Z,100.00
2022-12-28T06:28:55.253Z,100.00
2022-12-28T06:31:27.261Z,100.00
2022-12-28T06:33:55.507Z,100.00
2022-12-28T06:36:24.788Z,100.00
2022-12-28T06:38:53.737Z,100.00
2022-12-28T06:41:22.274Z,100.00
2022-12-28T06:43:49.835Z,100.00
2022-12-28T06:46:18.109Z,100.00
2022-12-28T06:48:44.671Z,100.00
2022-12-28T06:51:24.206Z,100.00
2022-12-28T06:53:52.218Z,100.00
2022-12-28T06:56:24.977Z,100.00
2022-12-28T06:58:57.015Z,100.00
2022-12-28T07:01:40.638Z,100.00
2022-12-28T07:04:09.774Z,100.00
2022-12-28T07:06:44.131Z,100.00
2022-12-28T07:09:14.194Z,100.00
2022-12-28T07:11:41.273Z,100.00
2022-12-28T07:14:08.107Z,100.00
2022-12-28T07:19:01.036Z,100.00
2022-12-28T07:21:32.710Z,100.00
2022-12-28T07:23:59.430Z,100.00
2022-12-28T07:26:28.523Z,100.00
2022-12-28T07:28:57.248Z,100.00
2022-12-28T07:31:27.807Z,100.00
2022-12-28T07:33:58.278Z,100.00
2022-12-28T07:36:26.767Z,100.00
2022-12-28T07:38:53.591Z,100.00
2022-12-28T07:41:22.890Z,100.00
2022-12-28T07:43:50.175Z,100.00
2022-12-28T07:46:21.140Z,100.00
2022-12-28T07:48:48.480Z,100.00
2022-12-28T07:51:36.681Z,100.00
2022-12-28T07:54:04.618Z,100.00
2022-12-28T07:59:01.759Z,100.00
2022-12-28T08:01:30.411Z,100.00
2022-12-28T08:04:00.747Z,100.00
2022-12-28T08:06:28.477Z,100.00
2022-12-28T08:08:58.535Z,100.00
2022-12-28T08:11:27.937Z,100.00
2022-12-28T08:13:56.069Z,100.00
2022-12-28T08:16:25.046Z,100.00
2022-12-28T08:18:51.704Z,100.00
2022-12-28T08:21:21.413Z,100.00
2022-12-28T08:23:48.833Z,100.00
2022-12-28T08:26:29.819Z,100.00
2022-12-28T08:28:59.048Z,100.00
2022-12-28T08:31:28.225Z,100.00
2022-12-28T08:33:56.338Z,100.00
2022-12-28T08:36:23.157Z,100.00
2022-12-28T08:38:49.720Z,100.00
2022-12-28T08:41:19.327Z,100.00
2022-12-28T08:43:46.289Z,100.00
2022-12-28T08:46:16.068Z,100.00
2022-12-28T08:48:43.784Z,100.00
2022-12-28T08:51:12.886Z,100.00
2022-12-28T08:53:40.523Z,100.00
2022-12-28T08:56:20.112Z,100.00
2022-12-28T08:58:47.588Z,100.00
2022-12-28T09:01:16.580Z,100.00
2022-12-28T09:03:45.479Z,100.00
2022-12-28T09:06:14.739Z,100.00
2022-12-28T09:08:42.583Z,100.00
2022-12-28T09:11:13.760Z,100.00
2022-12-28T09:13:40.609Z,100.00
2022-12-28T09:16:13.229Z,100.00
2022-12-28T09:18:41.290Z,100.00
2022-12-28T09:21:13.957Z,100.00
2022-12-28T09:23:41.105Z,100.00
2022-12-28T09:26:10.609Z,100.00
2022-12-28T09:28:38.087Z,100.00
2022-12-28T09:31:06.210Z,100.00
2022-12-28T09:33:33.211Z,100.00
2022-12-28T09:35:59.625Z,100.00
2022-12-28T09:38:26.203Z,100.00
2022-12-28T09:40:52.744Z,98.64
2022-12-28T09:43:19.997Z,98.03
2022-12-28T09:45:47.970Z,95.09
2022-12-28T09:48:19.019Z,96.22
2022-12-28T09:50:47.571Z,97.80
2022-12-28T09:53:23.230Z,98.43
2022-12-28T09:56:03.009Z,96.02
2022-12-28T09:58:32.320Z,93.30
2022-12-28T10:01:02.247Z,92.83
2022-12-28T10:03:37.961Z,92.04
2022-12-28T10:06:12.191Z,92.28
2022-12-28T10:08:51.251Z,90.96
2022-12-28T10:11:22.554Z,91.42
2022-12-28T10:13:55.130Z,91.33
2022-12-28T10:16:25.021Z,89.64
2022-12-28T10:18:52.137Z,89.72
2022-12-28T10:21:25.453Z,90.97
2022-12-28T10:24:29.618Z,90.51
2022-12-28T10:26:46.494Z,89.07
2022-12-28T10:29:19.399Z,89.48
2022-12-28T10:32:00.975Z,88.63
2022-12-28T10:34:33.498Z,87.74
2022-12-28T10:37:15.384Z,87.04
2022-12-28T10:39:58.003Z,86.86
2022-12-28T10:42:40.999Z,83.93
2022-12-28T10:45:18.001Z,83.02
2022-12-28T10:47:50.329Z,82.34
2022-12-28T10:50:48.154Z,80.42
2022-12-28T10:53:17.636Z,80.78
2022-12-28T10:55:44.640Z,79.63
2022-12-28T10:58:33.281Z,78.11
2022-12-28T11:01:11.346Z,77.28
2022-12-28T11:03:43.994Z,77.16
2022-12-28T11:06:26.700Z,74.11
2022-12-28T11:09:21.494Z,74.08
2022-12-28T11:11:49.529Z,72.60
2022-12-28T11:14:34.102Z,72.63
2022-12-28T11:17:20.541Z,71.89
2022-12-28T11:19:49.424Z,70.70
2022-12-28T11:22:22.603Z,71.50
2022-12-28T11:24:49.153Z,71.03
2022-12-28T11:27:19.684Z,70.24
2022-12-28T11:29:51.192Z,71.66
2022-12-28T11:32:39.826Z,69.95
2022-12-28T11:35:06.833Z,68.96
2022-12-28T11:37:33.272Z,70.46
2022-12-28T11:39:59.733Z,69.41
2022-12-28T11:42:40.699Z,70.26
2022-12-28T11:45:14.952Z,71.51
2022-12-28T11:47:41.538Z,71.68
2022-12-28T11:50:32.888Z,71.77
2022-12-28T11:53:00.435Z,72.91
2022-12-28T11:55:35.795Z,73.21
2022-12-28T11:58:33.457Z,72.56
2022-12-28T12:01:00.268Z,72.93
2022-12-28T12:03:58.197Z,73.35
2022-12-28T12:06:43.166Z,73.02
2022-12-28T12:09:33.061Z,72.20
2022-12-28T12:12:21.210Z,72.46
2022-12-28T12:14:51.536Z,72.59
2022-12-28T12:17:41.190Z,71.68
2022-12-28T12:20:44.529Z,71.27
2022-12-28T12:24:05.311Z,70.12
2022-12-28T12:26:49.182Z,70.00
2022-12-28T12:29:20.979Z,70.83
2022-12-28T12:31:57.394Z,70.49
2022-12-28T12:34:36.460Z,68.25
2022-12-28T12:37:27.093Z,68.74
2022-12-28T12:40:21.374Z,69.05
2022-12-28T12:43:09.698Z,68.45
2022-12-28T12:45:56.134Z,68.15
2022-12-28T12:48:41.409Z,68.13
2022-12-28T12:51:37.008Z,68.54
2022-12-28T12:54:06.215Z,67.62
2022-12-28T12:56:52.017Z,67.56
2022-12-28T12:59:27.258Z,68.37
2022-12-28T13:02:12.347Z,68.50
2022-12-28T13:04:43.739Z,69.08
2022-12-28T13:07:17.897Z,68.72
2022-12-28T13:09:44.642Z,68.86
2022-12-28T13:12:17.283Z,69.42
2022-12-28T13:14:45.800Z,69.39
2022-12-28T13:17:19.298Z,68.85
2022-12-28T13:19:45.880Z,68.71
2022-12-28T13:22:33.184Z,67.85
2022-12-28T13:25:00.147Z,67.51
2022-12-28T13:27:34.553Z,65.35
2022-12-28T13:30:01.929Z,66.60
2022-12-28T13:32:38.239Z,65.15
2022-12-28T13:35:21.942Z,66.97
2022-12-28T13:38:24.005Z,66.56
2022-12-28T13:40:53.434Z,66.31
2022-12-28T13:43:25.699Z,64.83
2022-12-28T13:45:57.613Z,65.32
2022-12-28T13:48:25.738Z,64.96
2022-12-28T13:50:53.277Z,65.31
2022-12-28T13:53:27.860Z,64.90
2022-12-28T13:56:00.753Z,63.47
2022-12-28T13:58:29.726Z,63.56
2022-12-28T14:00:58.971Z,63.80
2022-12-28T14:03:26.468Z,63.87
2022-12-28T14:05:57.778Z,64.17
2022-12-28T14:08:24.151Z,64.15
2022-12-28T14:10:51.718Z,64.62
2022-12-28T14:13:19.735Z,64.67
2022-12-28T14:15:47.528Z,64.54
2022-12-28T14:18:17.215Z,64.17
2022-12-28T14:20:54.101Z,63.48
2022-12-28T14:23:26.434Z,64.16
2022-12-28T14:25:55.356Z,64.24
2022-12-28T14:28:31.512Z,64.66
2022-12-28T14:30:58.227Z,64.45
2022-12-28T14:33:27.786Z,65.10
2022-12-28T14:35:59.270Z,65.12
2022-12-28T14:38:34.369Z,65.23
2022-12-28T14:41:02.464Z,64.62
2022-12-28T14:43:32.451Z,65.23
2022-12-28T14:46:18.016Z,64.74
2022-12-28T14:48:44.935Z,65.14
2022-12-28T14:51:24.359Z,65.10
2022-12-28T14:54:15.971Z,65.13
2022-12-28T14:56:46.163Z,64.08
2022-12-28T14:59:22.288Z,64.20
2022-12-28T15:01:48.958Z,63.55
2022-12-28T15:04:28.287Z,63.46
2022-12-28T15:06:54.873Z,63.67
2022-12-28T15:09:21.874Z,63.49
2022-12-28T15:11:48.432Z,63.51
2022-12-28T15:14:15.131Z,63.74
2022-12-28T15:16:41.577Z,63.50
2022-12-28T15:19:08.259Z,63.52
2022-12-28T15:21:34.890Z,63.16
2022-12-28T15:24:01.397Z,63.46
2022-12-28T15:26:27.888Z,63.24
2022-12-28T15:28:54.374Z,63.95
2022-12-28T15:31:21.915Z,63.89
2022-12-28T15:33:49.411Z,64.08
2022-12-28T15:36:22.287Z,64.40
2022-12-28T15:38:49.146Z,64.74
2022-12-28T15:41:16.653Z,65.03
2022-12-28T15:43:43.255Z,65.27
2022-12-28T15:46:09.729Z,65.23
2022-12-28T15:48:36.324Z,65.64
2022-12-28T15:51:02.809Z,65.64
2022-12-28T15:53:29.208Z,65.80
2022-12-28T15:56:01.797Z,65.97
2022-12-28T15:58:29.451Z,66.05
2022-12-28T16:00:55.928Z,66.40
2022-12-28T16:03:22.746Z,66.47
2022-12-28T16:05:49.251Z,66.55
2022-12-28T16:08:15.679Z,66.91
2022-12-28T16:10:42.156Z,67.03
2022-12-28T16:13:08.703Z,67.03
2022-12-28T16:15:35.234Z,67.33
2022-12-28T16:18:01.772Z,67.62
2022-12-28T16:20:29.666Z,67.33
2022-12-28T16:22:56.039Z,67.82
2022-12-28T16:25:22.460Z,67.70
2022-12-28T16:27:48.932Z,67.78
2022-12-28T16:30:15.615Z,68.01
2022-12-28T16:32:42.145Z,68.09
2022-12-28T16:35:09.032Z,68.10
2022-12-28T16:37:35.540Z,68.24
2022-12-28T16:40:02.074Z,68.47
2022-12-28T16:42:28.611Z,69.08
2022-12-28T16:44:55.138Z,68.98
2022-12-28T16:47:21.679Z,69.00
2022-12-28T16:49:48.215Z,69.33
2022-12-28T16:52:14.645Z,69.46
2022-12-28T16:54:41.079Z,69.68
2022-12-28T16:57:07.537Z,69.83
2022-12-28T16:59:34.016Z,70.07
2022-12-28T17:02:00.553Z,70.03
2022-12-28T17:04:27.137Z,70.23
2022-12-28T17:06:54.210Z,70.18
2022-12-28T17:09:21.269Z,70.34
2022-12-28T17:11:49.768Z,70.54
2022-12-28T17:14:29.201Z,71.21
2022-12-28T17:17:02.898Z,72.44
2022-12-28T17:19:29.440Z,73.25
2022-12-28T17:21:55.884Z,73.00
2022-12-28T17:24:22.398Z,73.36
2022-12-28T17:26:48.817Z,74.78
2022-12-28T17:29:15.381Z,72.98
2022-12-28T17:31:43.727Z,72.34
2022-12-28T17:34:11.020Z,72.63
2022-12-28T17:36:37.507Z,72.21
2022-12-28T17:39:04.608Z,72.40
2022-12-28T17:41:31.358Z,72.25
2022-12-28T17:43:59.845Z,72.58
2022-12-28T17:46:29.009Z,73.51
2022-12-28T17:48:57.464Z,72.98
2022-12-28T17:51:24.695Z,72.74
2022-12-28T17:53:53.399Z,72.93
2022-12-28T17:56:20.036Z,72.97
2022-12-28T17:58:46.439Z,73.21
2022-12-28T18:01:13.430Z,72.99
2022-12-28T18:03:40.188Z,73.24
2022-12-28T18:06:07.500Z,73.52
2022-12-28T18:08:34.443Z,73.93
2022-12-28T18:11:00.970Z,73.94
2022-12-28T18:13:27.597Z,73.86
2022-12-28T18:15:54.189Z,74.22
2022-12-28T18:18:20.708Z,74.22
2022-12-28T18:20:59.819Z,74.16
2022-12-28T18:23:26.883Z,74.39
2022-12-28T18:26:00.413Z,75.36
2022-12-28T18:28:26.854Z,75.49
2022-12-28T18:30:57.886Z,74.88
2022-12-28T18:33:28.320Z,74.84
2022-12-28T18:35:54.859Z,74.85
2022-12-28T18:38:21.405Z,76.52
2022-12-28T18:40:53.064Z,76.80
2022-12-28T18:43:21.070Z,76.90
2022-12-28T18:45:58.587Z,80.03
2022-12-28T18:48:26.709Z,78.02
2022-12-28T18:51:23.559Z,77.28
2022-12-28T18:53:50.036Z,77.39
2022-12-28T18:56:19.323Z,77.13
2022-12-28T18:58:54.027Z,77.12
2022-12-28T19:02:04.638Z,77.21
2022-12-28T19:04:10.693Z,77.77
2022-12-28T19:06:38.047Z,77.65
2022-12-28T19:09:06.153Z,77.79
2022-12-28T19:11:33.328Z,80.29
2022-12-28T19:14:03.216Z,80.46
2022-12-28T19:16:31.796Z,79.24
2022-12-28T19:18:59.363Z,79.00
2022-12-28T19:21:30.204Z,78.77
2022-12-28T19:23:59.366Z,79.21
2022-12-28T19:26:26.083Z,83.28
2022-12-28T19:28:53.177Z,83.89
2022-12-28T19:31:19.899Z,81.41
2022-12-28T19:33:46.882Z,81.55
2022-12-28T19:36:13.423Z,81.33
2022-12-28T19:38:40.063Z,82.06
2022-12-28T19:41:09.283Z,83.95
2022-12-28T19:43:36.244Z,83.50
2022-12-28T19:46:13.596Z,81.88
2022-12-28T19:48:40.466Z,81.68
2022-12-28T19:51:07.419Z,81.73
2022-12-28T19:53:34.049Z,82.29
2022-12-28T19:56:13.802Z,82.38
2022-12-28T19:58:43.841Z,83.02
2022-12-28T20:01:16.654Z,83.63
2022-12-28T20:03:44.140Z,84.99
2022-12-28T20:06:19.341Z,84.90
2022-12-28T20:08:50.683Z,84.16
2022-12-28T20:11:18.780Z,83.25
2022-12-28T20:13:50.815Z,82.75
2022-12-28T20:16:17.286Z,82.80
2022-12-28T20:18:52.204Z,82.54
2022-12-28T20:21:20.749Z,82.63
2022-12-28T20:23:52.200Z,82.46
2022-12-28T20:26:24.189Z,82.63
2022-12-28T20:28:50.849Z,82.76
2022-12-28T20:31:19.984Z,83.03
2022-12-28T20:33:47.222Z,83.65
2022-12-28T20:36:19.341Z,83.13
2022-12-28T20:38:47.033Z,83.74
2022-12-28T20:41:16.553Z,84.02
2022-12-28T20:43:43.185Z,83.82
2022-12-28T20:46:12.750Z,85.65
2022-12-28T20:48:39.237Z,85.00
2022-12-28T20:51:05.782Z,84.54
2022-12-28T20:53:32.310Z,86.47
2022-12-28T20:56:09.804Z,86.10
2022-12-28T20:58:37.619Z,85.51
2022-12-28T21:01:05.807Z,85.42
2022-12-28T21:03:32.647Z,85.35
2022-12-28T21:05:59.340Z,85.45
2022-12-28T21:08:30.697Z,85.98
2022-12-28T21:10:58.015Z,86.16
2022-12-28T21:13:24.554Z,86.96
2022-12-28T21:15:51.129Z,88.35
2022-12-28T21:18:17.563Z,87.43
2022-12-28T21:20:45.747Z,87.31
2022-12-28T21:23:12.274Z,87.02
2022-12-28T21:25:38.789Z,86.92
2022-12-28T21:28:05.930Z,86.90
2022-12-28T21:30:32.482Z,87.98
2022-12-28T21:32:59.146Z,87.05
2022-12-28T21:35:30.447Z,86.94
2022-12-28T21:38:00.245Z,87.05
2022-12-28T21:40:26.779Z,87.10
2022-12-28T21:42:53.183Z,87.10
2022-12-28T21:45:19.625Z,87.44
2022-12-28T21:47:46.169Z,87.42
2022-12-28T21:50:12.589Z,88.02
2022-12-28T21:52:39.024Z,87.88
2022-12-28T21:55:05.961Z,89.36
2022-12-28T21:57:32.362Z,93.59
2022-12-28T22:00:00.276Z,92.44
2022-12-28T22:02:28.632Z,90.32
2022-12-28T22:05:01.801Z,90.03
2022-12-28T22:07:28.933Z,89.49
2022-12-28T22:09:57.747Z,89.32
2022-12-28T22:12:25.909Z,89.73
2022-12-28T22:14:52.371Z,89.38
2022-12-28T22:17:18.885Z,89.72
2022-12-28T22:19:45.325Z,89.75
2022-12-28T22:22:11.765Z,90.22
2022-12-28T22:24:38.210Z,90.31
2022-12-28T22:27:04.638Z,90.33
2022-12-28T22:29:31.175Z,90.51
2022-12-28T22:31:57.603Z,90.26
2022-12-28T22:34:24.028Z,91.21
2022-12-28T22:36:50.602Z,90.67
2022-12-28T22:39:17.132Z,90.09
2022-12-28T22:41:43.505Z,90.85
2022-12-28T22:44:10.411Z,91.91
2022-12-28T22:46:36.913Z,93.28
2022-12-28T22:49:03.499Z,91.81
2022-12-28T22:51:29.944Z,91.39
2022-12-28T22:53:56.441Z,91.09
2022-12-28T22:56:22.864Z,91.07
2022-12-28T22:58:49.326Z,90.97
2022-12-28T23:01:19.103Z,90.92
2022-12-28T23:03:47.869Z,91.66
2022-12-28T23:06:17.505Z,91.23
2022-12-28T23:08:44.299Z,91.64
2022-12-28T23:11:13.818Z,92.13
2022-12-28T23:13:40.353Z,93.12
2022-12-28T23:16:06.909Z,93.09
2022-12-28T23:18:35.036Z,93.71
2022-12-28T23:21:01.618Z,93.67
2022-12-28T23:23:28.047Z,93.20
2022-12-28T23:25:54.500Z,92.89
2022-12-28T23:28:21.035Z,92.48
2022-12-28T23:30:49.899Z,92.32
2022-12-28T23:33:18.003Z,92.25
2022-12-28T23:35:45.360Z,92.24
2022-12-28T23:38:12.121Z,92.33
2022-12-28T23:40:40.281Z,92.62
2022-12-28T23:43:07.352Z,92.81
2022-12-28T23:45:35.010Z,92.50
2022-12-28T23:48:01.521Z,92.46
2022-12-28T23:50:28.107Z,92.60
2022-12-28T23:52:54.521Z,92.59
2022-12-28T23:55:20.936Z,92.64
2022-12-28T23:57:47.397Z,92.50
